Time;durP1;ratioP1;P1;durP2;ratioP2;P2;SDS_P1;SDS_P2;PMS_P1;PMS_P2;Temp;Humidity;BMP_temperature;BMP_pressure;BME280_temperature;BME280_humidity;BME280_pressure;Samples;Min_cycle;Max_cycle;Signal;HPM_P1;HPM_P2
2022/10/13 00:01:47;;;;;;;47.20;35.23;;;8.70;99.90;;;;;;5061375;28;20285;-85
2022/10/13 00:04:13;;;;;;;54.27;28.00;;;8.70;99.90;;;;;;5065227;28;20675;-84
2022/10/13 00:06:39;;;;;;;133.20;25.50;;;8.80;99.90;;;;;;5067946;28;20202;-86
2022/10/13 00:09:05;;;;;;;122.03;33.80;;;8.80;99.90;;;;;;5065792;28;20204;-85
2022/10/13 00:11:30;;;;;;;135.53;37.63;;;8.90;99.90;;;;;;5065941;28;20193;-85
2022/10/13 00:14:01;;;;;;;104.37;21.37;;;9.00;99.90;;;;;;5058481;28;20695;-84
2022/10/13 00:16:28;;;;;;;88.07;20.53;;;9.00;99.90;;;;;;5044131;28;20182;-85
2022/10/13 00:18:53;;;;;;;67.20;18.90;;;9.10;99.90;;;;;;5044181;28;20325;-86
2022/10/13 00:21:22;;;;;;;93.90;25.07;;;9.10;99.90;;;;;;5041517;28;20617;-86
2022/10/13 00:23:50;;;;;;;65.47;32.73;;;9.10;99.90;;;;;;5042343;28;20249;-86
2022/10/13 00:26:17;;;;;;;73.23;30.67;;;9.10;99.90;;;;;;5043876;28;20186;-84
2022/10/13 00:28:44;;;;;;;94.27;25.57;;;9.10;99.90;;;;;;5053701;28;20166;-83
2022/10/13 00:31:19;;;;;;;57.37;18.60;;;9.10;99.90;;;;;;5055426;28;20270;-83
2022/10/13 00:33:45;;;;;;;60.33;19.47;;;9.10;99.90;;;;;;5057098;28;20197;-84
2022/10/13 00:36:11;;;;;;;58.10;19.87;;;9.10;99.90;;;;;;5058501;28;20185;-84
2022/10/13 00:38:37;;;;;;;44.43;22.87;;;9.10;99.90;;;;;;5060576;28;20182;-84
2022/10/13 00:41:03;;;;;;;48.20;19.23;;;9.10;99.90;;;;;;5060785;28;20178;-85
2022/10/13 00:44:01;;;;;;;50.60;21.90;;;9.00;99.90;;;;;;5061325;28;20253;-84
2022/10/13 00:46:32;;;;;;;43.17;21.97;;;9.00;99.90;;;;;;5063279;28;20192;-86
2022/10/13 00:49:00;;;;;;;48.83;28.50;;;9.00;99.90;;;;;;5062325;28;20174;-85
2022/10/13 00:51:30;;;;;;;48.70;21.23;;;9.00;99.90;;;;;;5063097;28;20221;-86
2022/10/13 00:53:58;;;;;;;55.03;25.63;;;9.00;99.90;;;;;;5061889;28;20296;-85
2022/10/13 00:56:25;;;;;;;48.43;27.17;;;9.00;99.90;;;;;;5061493;28;20183;-85
2022/10/13 00:58:52;;;;;;;50.60;30.30;;;9.10;99.90;;;;;;5061682;28;20188;-84
2022/10/13 01:01:17;;;;;;;37.30;28.20;;;9.10;99.90;;;;;;5045044;28;20629;-83
2022/10/13 01:03:43;;;;;;;47.37;25.80;;;9.10;99.90;;;;;;5044734;28;20252;-84
2022/10/13 01:06:11;;;;;;;47.43;28.87;;;9.10;99.90;;;;;;5044994;28;20246;-85
2022/10/13 01:08:37;;;;;;;52.50;29.37;;;9.20;99.90;;;;;;5041904;28;20187;-85
2022/10/13 01:11:36;;;;;;;67.87;28.80;;;9.10;99.90;;;;;;5043155;28;20639;-85
2022/10/13 01:14:06;;;;;;;42.70;26.57;;;9.10;99.90;;;;;;5051983;28;20267;-86
2022/10/13 01:16:53;;;;;;;34.50;26.07;;;9.20;99.90;;;;;;5037529;28;20670;-84
2022/10/13 01:19:37;;;;;;;40.70;24.10;;;9.10;99.90;;;;;;5044823;28;20191;-84
2022/10/13 01:22:43;;;;;;;38.67;22.40;;;9.10;99.90;;;;;;5041333;28;20194;-84
2022/10/13 01:25:47;;;;;;;32.60;21.23;;;9.10;99.90;;;;;;5057013;28;20198;-86
2022/10/13 01:28:39;;;;;;;36.97;24.60;;;9.00;99.90;;;;;;5045159;28;20246;-86
2022/10/13 01:31:14;;;;;;;38.23;27.37;;;9.00;99.90;;;;;;5049584;28;20224;-86
2022/10/13 01:33:55;;;;;;;32.33;29.37;;;9.00;99.90;;;;;;5062621;28;20675;-88
2022/10/13 01:36:44;;;;;;;39.30;35.77;;;9.00;99.90;;;;;;5062095;28;20646;-86
2022/10/13 01:39:24;;;;;;;38.83;34.17;;;8.90;99.90;;;;;;5060382;28;20186;-85
2022/10/13 01:41:55;;;;;;;35.73;31.93;;;8.90;99.90;;;;;;5039895;28;20218;-86
2022/10/13 01:44:28;;;;;;;48.27;39.80;;;8.90;99.90;;;;;;5041732;28;20207;-86
2022/10/13 01:46:54;;;;;;;46.10;41.37;;;8.90;99.90;;;;;;5053427;28;20178;-86
2022/10/13 01:49:25;;;;;;;56.87;34.30;;;8.80;99.90;;;;;;5054903;28;20210;-86
2022/10/13 01:51:55;;;;;;;46.40;34.53;;;8.80;99.90;;;;;;5057934;28;20198;-85
2022/10/13 01:54:21;;;;;;;63.90;33.73;;;8.70;99.90;;;;;;5046153;28;20249;-87
2022/10/13 01:57:26;;;;;;;53.83;27.50;;;8.70;99.90;;;;;;5035409;28;20179;-86
2022/10/13 01:59:52;;;;;;;43.97;26.33;;;8.70;99.90;;;;;;5052857;28;20191;-87
2022/10/13 02:02:30;;;;;;;56.30;23.27;;;8.80;99.90;;;;;;5033338;28;20214;-86
2022/10/13 02:05:20;;;;;;;98.17;25.57;;;8.70;99.90;;;;;;5033207;28;20235;-86
2022/10/13 02:08:08;;;;;;;89.07;37.63;;;8.70;99.90;;;;;;5033387;28;20180;-86
2022/10/13 02:11:06;;;;;;;69.90;32.27;;;8.70;99.90;;;;;;5033642;28;20171;-85
2022/10/13 02:13:35;;;;;;;101.00;48.63;;;8.80;99.90;;;;;;5028151;28;20219;-86
2022/10/13 02:16:01;;;;;;;70.23;50.50;;;8.80;99.90;;;;;;5035281;28;20179;-86
2022/10/13 02:18:33;;;;;;;63.77;46.90;;;8.80;99.90;;;;;;5034188;28;20187;-85
2022/10/13 02:21:00;;;;;;;50.93;44.80;;;8.80;99.90;;;;;;5033774;28;20176;-86
2022/10/13 02:23:27;;;;;;;44.43;36.77;;;8.80;99.90;;;;;;5034642;28;20203;-86
2022/10/13 02:25:55;;;;;;;38.03;34.93;;;8.80;99.90;;;;;;5039648;28;20187;-85
2022/10/13 02:28:22;;;;;;;30.57;27.53;;;8.90;99.90;;;;;;5044339;28;20178;-87
2022/10/13 02:30:48;;;;;;;36.30;32.50;;;8.90;99.90;;;;;;5056688;28;20186;-86
2022/10/13 02:33:14;;;;;;;40.23;30.50;;;9.00;99.90;;;;;;5055204;28;20384;-84
2022/10/13 02:35:41;;;;;;;32.87;27.93;;;9.10;99.90;;;;;;5046955;28;20254;-85
2022/10/13 02:38:07;;;;;;;48.13;25.53;;;9.20;99.90;;;;;;5053481;28;20198;-85
2022/10/13 02:40:33;;;;;;;49.67;25.57;;;9.20;99.90;;;;;;5058491;28;20191;-85
2022/10/13 02:42:59;;;;;;;37.10;25.13;;;9.30;99.90;;;;;;5038365;28;20603;-84
2022/10/13 02:45:25;;;;;;;34.27;20.77;;;9.30;99.90;;;;;;5054480;28;20226;-84
2022/10/13 02:47:50;;;;;;;35.23;20.10;;;9.30;99.90;;;;;;5035778;28;20187;-85
2022/10/13 02:50:16;;;;;;;81.87;76.07;;;9.30;99.90;;;;;;5041669;28;20232;-85
2022/10/13 02:52:42;;;;;;;29.90;27.03;;;9.40;99.90;;;;;;5042002;28;20305;-85
2022/10/13 02:55:08;;;;;;;41.67;38.33;;;9.40;99.90;;;;;;5041402;28;20219;-85
2022/10/13 02:57:34;;;;;;;42.00;38.63;;;9.40;99.90;;;;;;5043584;28;20278;-83
2022/10/13 03:00:00;;;;;;;53.73;49.63;;;9.40;99.90;;;;;;5060750;28;20244;-88
2022/10/13 03:02:26;;;;;;;49.70;45.67;;;9.50;99.90;;;;;;5063038;28;20216;-85
2022/10/13 03:04:53;;;;;;;49.03;44.83;;;9.50;99.90;;;;;;5062044;28;20251;-84
2022/10/13 03:07:18;;;;;;;44.37;41.03;;;9.40;99.90;;;;;;5057666;28;20171;-83
2022/10/13 03:09:44;;;;;;;35.87;32.80;;;9.40;99.90;;;;;;5075558;22;20234;-78
2022/10/13 03:12:10;;;;;;;30.37;27.17;;;9.40;99.90;;;;;;5048920;28;20179;-79
2022/10/13 03:14:36;;;;;;;37.47;34.27;;;9.30;99.90;;;;;;5047169;28;20183;-78
2022/10/13 03:17:02;;;;;;;29.87;27.43;;;9.30;99.90;;;;;;5047413;28;20864;-80
2022/10/13 03:19:28;;;;;;;29.43;26.43;;;9.40;99.90;;;;;;5045028;28;20214;-80
2022/10/13 03:21:54;;;;;;;25.43;22.73;;;9.40;99.90;;;;;;5045790;28;20329;-80
2022/10/13 03:24:20;;;;;;;22.90;19.93;;;9.40;99.90;;;;;;5042812;28;20687;-81
2022/10/13 03:26:45;;;;;;;24.07;19.10;;;9.40;99.90;;;;;;5042406;28;20179;-79
2022/10/13 03:29:16;;;;;;;20.87;18.77;;;9.40;99.90;;;;;;5042189;28;20377;-80
2022/10/13 03:31:42;;;;;;;20.57;18.77;;;9.40;99.90;;;;;;5043624;28;20183;-81
2022/10/13 03:34:12;;;;;;;20.33;18.37;;;9.50;99.90;;;;;;5040801;28;20270;-80
2022/10/13 03:36:38;;;;;;;22.03;18.07;;;9.40;99.90;;;;;;5043556;28;20183;-78
2022/10/13 03:39:04;;;;;;;22.27;16.47;;;9.40;99.90;;;;;;5051400;28;20186;-81
2022/10/13 03:41:29;;;;;;;20.87;18.77;;;9.40;99.90;;;;;;5044541;28;20242;-81
2022/10/13 03:43:55;;;;;;;24.27;18.47;;;9.40;99.90;;;;;;5042168;28;20176;-81
2022/10/13 03:46:25;;;;;;;19.87;16.90;;;9.50;99.90;;;;;;5043262;28;20187;-79
2022/10/13 03:48:50;;;;;;;16.17;14.50;;;9.50;99.90;;;;;;5041415;28;20190;-80
2022/10/13 03:51:19;;;;;;;20.30;17.27;;;9.50;99.90;;;;;;5045867;28;20195;-79
2022/10/13 03:53:46;;;;;;;25.00;16.00;;;9.50;99.90;;;;;;5053852;28;20213;-80
2022/10/13 03:56:15;;;;;;;19.23;14.87;;;9.50;99.90;;;;;;5038611;28;20190;-79
2022/10/13 03:58:41;;;;;;;20.73;15.83;;;9.60;99.90;;;;;;5048760;28;20182;-81
2022/10/13 04:01:07;;;;;;;20.77;18.63;;;9.60;99.90;;;;;;5046897;28;20270;-81
2022/10/13 04:03:33;;;;;;;38.53;35.07;;;9.60;99.90;;;;;;5042417;28;20463;-81
2022/10/13 04:06:01;;;;;;;52.23;48.60;;;9.70;99.90;;;;;;5038126;28;20266;-81
2022/10/13 04:08:28;;;;;;;49.90;46.50;;;9.70;99.90;;;;;;5044855;28;20187;-82
2022/10/13 04:10:59;;;;;;;31.20;28.20;;;9.80;99.90;;;;;;5041957;28;20207;-80
2022/10/13 04:13:25;;;;;;;22.90;20.63;;;9.80;99.90;;;;;;5044116;28;20187;-80
2022/10/13 04:15:51;;;;;;;19.23;17.43;;;9.80;99.90;;;;;;5042080;28;20179;-80
2022/10/13 04:18:16;;;;;;;17.77;15.93;;;9.80;99.90;;;;;;5042530;28;20191;-80
2022/10/13 04:20:42;;;;;;;17.60;15.70;;;9.80;99.90;;;;;;5041376;28;20230;-79
2022/10/13 04:23:08;;;;;;;20.17;18.03;;;9.80;99.90;;;;;;5049829;28;20222;-80
2022/10/13 04:25:36;;;;;;;20.47;15.93;;;9.80;99.90;;;;;;5054959;28;20167;-81
2022/10/13 04:28:03;;;;;;;17.03;15.07;;;9.80;99.90;;;;;;5055043;28;20179;-78
2022/10/13 04:30:29;;;;;;;23.13;14.63;;;9.70;99.90;;;;;;5051585;28;20230;-80
2022/10/13 04:32:55;;;;;;;20.03;14.93;;;9.70;99.90;;;;;;5053808;28;20206;-78
2022/10/13 04:35:20;;;;;;;17.77;15.30;;;9.80;99.90;;;;;;5047923;28;20179;-81
2022/10/13 04:37:46;;;;;;;21.27;16.83;;;9.80;99.90;;;;;;5051709;28;20195;-79
2022/10/13 04:40:12;;;;;;;19.90;17.20;;;9.80;99.90;;;;;;5052691;28;20202;-79
2022/10/13 04:42:41;;;;;;;18.23;15.07;;;9.70;99.90;;;;;;5050447;28;20553;-82
2022/10/13 04:45:07;;;;;;;20.83;15.47;;;9.70;99.90;;;;;;5048477;28;20246;-82
2022/10/13 04:47:35;;;;;;;19.90;15.33;;;9.70;99.90;;;;;;5044689;28;20544;-81
2022/10/13 04:50:01;;;;;;;18.17;16.23;;;9.60;99.90;;;;;;5045561;28;20203;-80
2022/10/13 04:52:27;;;;;;;18.60;16.80;;;9.60;99.90;;;;;;5049727;28;20193;-79
2022/10/13 04:54:53;;;;;;;21.50;18.57;;;9.60;99.90;;;;;;5045956;28;20240;-80
2022/10/13 04:57:20;;;;;;;23.87;21.37;;;9.60;99.90;;;;;;5045603;28;20207;-82
2022/10/13 04:59:45;;;;;;;23.23;20.83;;;9.50;99.90;;;;;;5044131;28;20207;-82
2022/10/13 05:02:11;;;;;;;27.73;21.27;;;9.50;99.90;;;;;;5044326;28;20253;-81
2022/10/13 05:04:37;;;;;;;37.60;22.40;;;9.40;99.90;;;;;;5043511;28;20194;-79
2022/10/13 05:07:03;;;;;;;36.20;32.90;;;9.40;99.90;;;;;;5043323;28;20211;-81
2022/10/13 05:09:29;;;;;;;45.33;41.87;;;9.40;99.90;;;;;;5042266;28;20218;-82
2022/10/13 05:11:56;;;;;;;43.50;40.10;;;9.30;99.90;;;;;;5020078;28;20198;-79
2022/10/13 05:14:22;;;;;;;50.53;46.40;;;9.20;99.90;;;;;;5038034;28;20183;-80
2022/10/13 05:16:48;;;;;;;42.03;38.80;;;9.20;99.90;;;;;;5044583;28;20206;-81
2022/10/13 05:19:14;;;;;;;24.97;22.57;;;9.20;99.90;;;;;;5044155;28;20213;-81
2022/10/13 05:21:40;;;;;;;22.67;17.27;;;9.10;99.90;;;;;;5041844;28;20221;-81
2022/10/13 05:24:11;;;;;;;20.17;17.23;;;9.10;99.90;;;;;;5045750;28;20175;-80
2022/10/13 05:26:37;;;;;;;22.83;17.20;;;9.10;99.90;;;;;;5040452;28;20213;-82
2022/10/13 05:29:03;;;;;;;20.83;17.07;;;9.10;99.90;;;;;;5034693;28;20171;-81
2022/10/13 05:31:31;;;;;;;25.40;22.87;;;9.10;99.90;;;;;;5043401;28;20248;-80
2022/10/13 05:33:57;;;;;;;24.67;22.07;;;9.10;99.90;;;;;;5043619;28;20191;-80
2022/10/13 05:36:31;;;;;;;26.17;23.67;;;9.00;99.90;;;;;;5043312;28;20659;-81
2022/10/13 05:39:02;;;;;;;32.03;27.77;;;9.10;99.90;;;;;;5029172;28;20179;-74
2022/10/13 05:41:28;;;;;;;32.97;30.07;;;9.10;99.90;;;;;;5030485;28;20186;-76
2022/10/13 05:43:58;;;;;;;36.63;33.37;;;9.20;99.90;;;;;;5030947;28;20231;-75
2022/10/13 05:46:24;;;;;;;37.77;34.20;;;9.30;99.90;;;;;;5028530;28;20182;-75
2022/10/13 05:48:50;;;;;;;45.60;42.07;;;9.30;99.90;;;;;;5024497;28;20682;-74
2022/10/13 05:51:21;;;;;;;33.60;30.50;;;9.40;99.90;;;;;;5024569;28;20210;-77
2022/10/13 05:53:50;;;;;;;48.17;44.27;;;9.40;99.90;;;;;;5029920;28;20183;-76
2022/10/13 05:56:21;;;;;;;25.80;23.40;;;9.50;99.90;;;;;;5028805;28;20171;-76
2022/10/13 05:58:52;;;;;;;24.53;22.10;;;9.40;99.90;;;;;;5030122;28;20183;-78
2022/10/13 06:01:22;;;;;;;24.37;22.10;;;9.50;99.90;;;;;;5020671;28;20208;-77
2022/10/13 06:03:50;;;;;;;21.93;17.97;;;9.50;99.90;;;;;;5023324;28;20186;-77
2022/10/13 06:06:16;;;;;;;23.40;18.50;;;9.60;99.90;;;;;;5016290;28;20632;-77
2022/10/13 06:08:42;;;;;;;23.27;19.87;;;9.60;99.90;;;;;;5016983;28;20187;-76
2022/10/13 06:11:08;;;;;;;25.57;23.03;;;9.70;99.90;;;;;;5022454;28;20211;-76
2022/10/13 06:13:34;;;;;;;32.47;29.50;;;9.70;99.90;;;;;;5031388;28;20187;-76
2022/10/13 06:16:01;;;;;;;33.70;30.77;;;9.80;99.90;;;;;;5034698;28;20191;-76
2022/10/13 06:18:27;;;;;;;25.57;22.83;;;9.90;99.90;;;;;;5034589;28;20200;-77
2022/10/13 06:20:53;;;;;;;24.33;22.07;;;10.00;99.90;;;;;;5031153;28;20617;-77
2022/10/13 06:23:18;;;;;;;28.87;26.03;;;10.20;99.90;;;;;;5032789;28;20213;-77
2022/10/13 06:25:48;;;;;;;31.37;28.37;;;10.30;99.90;;;;;;5033548;28;20634;-76
2022/10/13 06:28:15;;;;;;;21.60;16.53;;;10.40;99.90;;;;;;5033491;28;20179;-76
2022/10/13 06:30:42;;;;;;;18.27;15.73;;;10.60;99.90;;;;;;5033065;28;20198;-75
2022/10/13 06:33:08;;;;;;;17.43;15.67;;;10.60;99.90;;;;;;5034177;28;20187;-74
2022/10/13 06:35:35;;;;;;;24.87;22.57;;;10.80;99.90;;;;;;5034422;28;20551;-74
2022/10/13 06:38:01;;;;;;;63.47;59.53;;;10.90;99.90;;;;;;5032778;28;20233;-75
2022/10/13 06:40:26;;;;;;;25.40;22.90;;;11.00;99.90;;;;;;5034252;28;20206;-75
2022/10/13 06:42:52;;;;;;;19.77;16.90;;;11.20;99.90;;;;;;5032796;28;20290;-75
2022/10/13 06:45:18;;;;;;;84.67;79.67;;;11.30;99.90;;;;;;5034275;28;20182;-75
2022/10/13 06:47:45;;;;;;;93.30;87.47;;;11.40;99.90;;;;;;5033691;28;20181;-74
2022/10/13 06:50:11;;;;;;;87.93;82.73;;;11.50;99.90;;;;;;5034079;28;20601;-74
2022/10/13 06:52:37;;;;;;;66.40;61.90;;;11.50;99.90;;;;;;5034027;28;20191;-74
2022/10/13 06:55:04;;;;;;;34.60;31.50;;;11.50;99.90;;;;;;5034307;28;20182;-74
2022/10/13 06:57:29;;;;;;;31.20;28.17;;;11.60;99.90;;;;;;5031904;28;20249;-74
2022/10/13 06:59:55;;;;;;;40.67;37.33;;;11.70;99.90;;;;;;5033613;28;20687;-74
2022/10/13 07:02:21;;;;;;;32.90;29.97;;;11.80;99.90;;;;;;5033194;28;20214;-74
2022/10/13 07:04:46;;;;;;;30.87;28.07;;;11.90;99.90;;;;;;5036379;28;20179;-76
2022/10/13 07:07:13;;;;;;;36.93;34.10;;;12.10;99.90;;;;;;5035895;28;20205;-77
2022/10/13 07:09:39;;;;;;;34.93;31.77;;;12.20;99.90;;;;;;5034092;28;20703;-77
2022/10/13 07:12:06;;;;;;;22.50;20.27;;;12.40;99.90;;;;;;5032232;28;20592;-77
2022/10/13 07:14:32;;;;;;;37.93;35.13;;;12.60;99.90;;;;;;5031690;28;20179;-77
2022/10/13 07:16:59;;;;;;;75.87;70.70;;;12.80;99.90;;;;;;5015509;28;20184;-77
2022/10/13 07:19:25;;;;;;;57.53;53.17;;;12.90;99.90;;;;;;5013542;28;20196;-77
2022/10/13 07:21:51;;;;;;;49.00;45.40;;;12.90;99.90;;;;;;5014244;28;20207;-77
2022/10/13 07:24:17;;;;;;;41.57;38.13;;;12.90;99.90;;;;;;5013163;28;20538;-77
2022/10/13 07:26:42;;;;;;;30.20;27.50;;;13.00;99.90;;;;;;5031405;28;20607;-77
2022/10/13 07:29:09;;;;;;;26.87;24.37;;;13.00;99.90;;;;;;5034216;28;20175;-77
2022/10/13 07:31:35;;;;;;;28.33;25.63;;;13.10;99.90;;;;;;5034759;28;20644;-78
2022/10/13 07:34:01;;;;;;;28.50;25.63;;;13.10;99.90;;;;;;5034490;28;20186;-79
2022/10/13 07:36:26;;;;;;;32.43;29.67;;;13.20;99.90;;;;;;5035775;28;20190;-79
2022/10/13 07:38:52;;;;;;;42.40;39.03;;;13.20;99.90;;;;;;5037388;28;20183;-78
2022/10/13 07:41:18;;;;;;;41.50;38.23;;;13.30;99.90;;;;;;5036063;28;20217;-79
2022/10/13 07:43:44;;;;;;;46.90;43.33;;;13.30;99.90;;;;;;5033498;28;20216;-79
2022/10/13 07:46:12;;;;;;;43.23;40.03;;;13.30;99.90;;;;;;5035817;28;20660;-77
2022/10/13 07:48:37;;;;;;;41.33;38.07;;;13.40;99.90;;;;;;5034988;28;20187;-77
2022/10/13 07:51:09;;;;;;;51.23;47.60;;;13.40;99.90;;;;;;5033989;28;20207;-78
2022/10/13 07:53:35;;;;;;;58.43;54.03;;;13.50;99.90;;;;;;5033473;28;20190;-78
2022/10/13 07:56:06;;;;;;;67.10;62.83;;;13.50;99.90;;;;;;5034992;28;20246;-79
2022/10/13 07:58:33;;;;;;;73.43;68.67;;;13.50;99.90;;;;;;5054768;28;20171;-77
2022/10/13 08:01:00;;;;;;;73.63;68.80;;;13.60;99.90;;;;;;5036103;28;20584;-77
2022/10/13 08:03:27;;;;;;;43.33;39.73;;;13.70;99.90;;;;;;5032249;28;20214;-76
2022/10/13 08:05:54;;;;;;;70.13;65.40;;;14.00;99.90;;;;;;5033571;28;20644;-77
2022/10/13 08:08:20;;;;;;;37.17;34.30;;;14.40;99.90;;;;;;5031933;28;20341;-77
2022/10/13 08:10:46;;;;;;;22.13;20.10;;;14.90;99.90;;;;;;5033665;28;20272;-77
2022/10/13 08:13:12;;;;;;;26.17;23.13;;;15.50;99.90;;;;;;5033753;28;20190;-78
2022/10/13 08:15:42;;;;;;;17.13;15.40;;;16.10;99.90;;;;;;5033421;28;20190;-78
2022/10/13 08:18:12;;;;;;;16.60;14.90;;;16.50;99.90;;;;;;5033444;28;20995;-78
2022/10/13 08:20:43;;;;;;;23.43;18.20;;;16.80;99.90;;;;;;5032035;28;20218;-78
2022/10/13 08:23:10;;;;;;;20.97;18.93;;;16.80;99.90;;;;;;5032341;28;20214;-78
2022/10/13 08:25:40;;;;;;;26.63;24.13;;;16.70;99.90;;;;;;5034569;28;20194;-78
2022/10/13 08:28:15;;;;;;;25.87;21.63;;;16.40;99.90;;;;;;5034427;28;20183;-84
2022/10/13 08:30:41;;;;;;;20.03;18.17;;;16.20;99.90;;;;;;5034606;28;20237;-77
2022/10/13 08:33:07;;;;;;;23.13;16.87;;;16.00;99.90;;;;;;5037198;28;20183;-79
2022/10/13 08:35:32;;;;;;;21.10;18.80;;;16.00;99.90;;;;;;5034379;28;20190;-79
2022/10/13 08:37:58;;;;;;;29.07;23.43;;;15.90;99.90;;;;;;5035539;28;20562;-79
2022/10/13 08:40:24;;;;;;;33.80;30.57;;;15.80;99.90;;;;;;5036635;28;20684;-77
2022/10/13 08:42:50;;;;;;;33.83;30.73;;;15.70;99.90;;;;;;5041186;28;20585;-78
2022/10/13 08:45:22;;;;;;;34.53;31.53;;;15.70;99.90;;;;;;5034242;28;20278;-78
2022/10/13 08:48:05;;;;;;;35.97;32.53;;;15.80;99.90;;;;;;5031678;28;20237;-78
2022/10/13 08:50:35;;;;;;;31.17;28.63;;;15.80;99.90;;;;;;5033406;28;20298;-78
2022/10/13 08:53:11;;;;;;;35.50;32.70;;;15.50;99.90;;;;;;5033195;28;20179;-79
2022/10/13 08:55:43;;;;;;;17.70;15.93;;;15.20;99.90;;;;;;5031997;28;20186;-78
2022/10/13 08:58:15;;;;;;;18.27;15.80;;;15.10;99.90;;;;;;5031923;28;20179;-78
2022/10/13 09:00:41;;;;;;;24.47;14.97;;;15.20;99.90;;;;;;5032837;28;20271;-79
2022/10/13 09:03:28;;;;;;;19.93;16.37;;;15.30;99.90;;;;;;5031594;28;20218;-78
2022/10/13 09:05:59;;;;;;;15.73;14.10;;;15.40;99.90;;;;;;5032162;28;20670;-78
2022/10/13 09:08:30;;;;;;;22.67;16.27;;;15.70;99.90;;;;;;5031944;28;20183;-78
2022/10/13 09:10:58;;;;;;;20.20;16.93;;;15.90;99.90;;;;;;5083804;22;20225;-77
2022/10/13 09:13:24;;;;;;;30.50;27.30;;;16.30;99.90;;;;;;5073758;28;20534;-77
2022/10/13 09:15:50;;;;;;;28.90;26.47;;;16.80;99.90;;;;;;5075644;28;20192;-77
2022/10/13 09:18:15;;;;;;;27.00;24.77;;;17.40;99.90;;;;;;5074428;28;20245;-78
2022/10/13 09:20:41;;;;;;;18.40;16.57;;;17.60;99.90;;;;;;5063851;28;20263;-78
2022/10/13 09:23:18;;;;;;;24.30;22.07;;;17.80;99.90;;;;;;5046634;28;20218;-77
2022/10/13 09:25:49;;;;;;;24.10;21.73;;;17.80;99.90;;;;;;5053194;28;20185;-77
2022/10/13 09:28:24;;;;;;;19.03;17.07;;;17.90;99.90;;;;;;5052404;28;20186;-76
2022/10/13 09:31:03;;;;;;;19.03;15.63;;;17.70;99.90;;;;;;5038047;28;20779;-78
2022/10/13 09:33:34;;;;;;;20.57;18.63;;;17.50;99.90;;;;;;5050803;28;20181;-77
2022/10/13 09:36:01;;;;;;;25.20;23.03;;;17.30;99.90;;;;;;5032962;28;20185;-75
2022/10/13 09:38:27;;;;;;;20.60;18.90;;;17.30;99.90;;;;;;5032487;28;20196;-74
2022/10/13 09:41:08;;;;;;;16.77;15.00;;;17.50;99.90;;;;;;5062273;28;20205;-74
2022/10/13 09:43:38;;;;;;;16.03;14.47;;;17.80;99.90;;;;;;5069675;28;20197;-74
2022/10/13 09:46:18;;;;;;;17.57;15.93;;;18.10;99.90;;;;;;5056144;28;20177;-77
2022/10/13 09:48:49;;;;;;;14.00;12.73;;;18.30;99.90;;;;;;5073888;28;20182;-74
2022/10/13 09:51:45;;;;;;;15.33;13.47;;;18.40;99.90;;;;;;5071000;28;20197;-72
2022/10/13 09:54:35;;;;;;;35.63;33.03;;;18.70;99.90;;;;;;5036665;28;20197;-72
2022/10/13 09:57:28;;;;;;;26.07;23.97;;;18.90;99.90;;;;;;5052940;28;20182;-72
2022/10/13 10:00:23;;;;;;;17.77;15.70;;;19.00;99.90;;;;;;5070721;28;20315;-73
2022/10/13 10:03:25;;;;;;;14.37;12.87;;;19.00;99.90;;;;;;5070752;28;20217;-72
2022/10/13 10:06:00;;;;;;;13.57;11.10;;;18.90;99.90;;;;;;5078454;28;20182;-79
2022/10/13 10:09:02;;;;;;;15.43;11.07;;;18.80;99.90;;;;;;5080267;28;20196;-80
2022/10/13 10:11:41;;;;;;;17.97;10.17;;;18.70;99.90;;;;;;5088772;28;20299;-78
2022/10/13 10:14:36;;;;;;;15.47;10.47;;;18.80;99.90;;;;;;5075961;28;20257;-80
2022/10/13 10:17:11;;;;;;;21.10;10.33;;;18.70;99.90;;;;;;5072548;28;20204;-79
2022/10/13 10:19:49;;;;;;;16.20;9.70;;;18.70;99.90;;;;;;5092333;28;20189;-79
2022/10/13 10:22:30;;;;;;;14.30;9.77;;;18.60;99.90;;;;;;5077500;28;20240;-79
2022/10/13 10:25:03;;;;;;;14.37;10.00;;;18.50;99.90;;;;;;5085852;28;20182;-79
2022/10/13 10:27:40;;;;;;;15.10;9.77;;;18.50;99.90;;;;;;5080596;28;20192;-78
2022/10/13 10:30:18;;;;;;;12.10;10.50;;;18.50;99.90;;;;;;5082423;28;20213;-78
2022/10/13 10:33:04;;;;;;;14.73;13.23;;;18.70;99.90;;;;;;5084543;28;20182;-78
2022/10/13 10:36:22;;;;;;;15.27;13.97;;;18.90;99.90;;;;;;5066610;28;20239;-78
2022/10/13 10:39:01;;;;;;;54.43;51.23;;;19.20;99.90;;;;;;5051364;28;20186;-78
2022/10/13 10:41:59;;;;;;;62.90;59.13;;;19.40;99.90;;;;;;5074967;28;20206;-79
2022/10/13 10:44:47;;;;;;;54.53;51.40;;;19.60;99.90;;;;;;5063960;28;20208;-79
2022/10/13 10:47:27;;;;;;;49.20;45.83;;;19.40;99.90;;;;;;5072805;28;20189;-80
2022/10/13 10:50:02;;;;;;;62.70;59.07;;;19.20;99.90;;;;;;5072872;28;20278;-78
2022/10/13 10:52:53;;;;;;;61.07;57.30;;;19.00;99.90;;;;;;5068810;28;20186;-77
2022/10/13 10:55:41;;;;;;;54.07;50.03;;;18.70;99.90;;;;;;5071224;28;20273;-78
2022/10/13 10:58:48;;;;;;;25.27;22.77;;;18.30;99.90;;;;;;5088125;28;20254;-79
2022/10/13 11:01:25;;;;;;;14.07;12.50;;;18.20;99.90;;;;;;5074453;28;20201;-79
2022/10/13 11:04:11;;;;;;;14.37;12.20;;;18.20;99.90;;;;;;5073925;28;20224;-79
2022/10/13 11:06:37;;;;;;;16.83;13.60;;;18.20;99.90;;;;;;5073026;28;20181;-78
2022/10/13 11:09:05;;;;;;;14.37;12.97;;;18.20;99.90;;;;;;5086709;28;20182;-78
2022/10/13 11:11:33;;;;;;;15.57;13.87;;;18.30;99.90;;;;;;5085535;28;20258;-78
2022/10/13 11:14:01;;;;;;;10.80;9.00;;;18.30;99.90;;;;;;5061040;28;20198;-78
2022/10/13 11:16:45;;;;;;;12.10;10.83;;;18.30;99.90;;;;;;5060743;28;20189;-71
2022/10/13 11:19:31;;;;;;;13.07;11.53;;;18.30;99.90;;;;;;5055792;28;20857;-71
2022/10/13 11:21:57;;;;;;;17.73;15.97;;;18.30;99.90;;;;;;5073000;28;20220;-71
2022/10/13 11:24:41;;;;;;;17.30;12.90;;;18.30;99.90;;;;;;5073746;28;20555;-70
2022/10/13 11:27:06;;;;;;;11.73;9.77;;;18.30;99.90;;;;;;5069617;28;20272;-70
2022/10/13 11:29:52;;;;;;;14.57;13.27;;;18.30;99.90;;;;;;5073253;28;20209;-70
2022/10/13 11:32:29;;;;;;;26.53;24.40;;;18.40;99.90;;;;;;5071177;28;20188;-71
2022/10/13 11:35:04;;;;;;;29.67;27.37;;;18.50;99.90;;;;;;5073629;28;20191;-78
2022/10/13 11:38:01;;;;;;;11.80;10.67;;;18.40;99.90;;;;;;5055766;28;20268;-78
2022/10/13 11:40:55;;;;;;;16.13;11.30;;;18.40;99.90;;;;;;5056296;28;20201;-79
2022/10/13 11:43:55;;;;;;;15.00;13.47;;;18.60;99.90;;;;;;5078672;28;20213;-78
2022/10/13 11:46:25;;;;;;;15.43;9.43;;;18.70;99.90;;;;;;5075019;28;20184;-79
2022/10/13 11:49:31;;;;;;;14.23;9.80;;;18.90;99.90;;;;;;5055702;28;20201;-78
2022/10/13 11:52:25;;;;;;;60.27;56.60;;;18.90;99.90;;;;;;5075670;28;20609;-78
2022/10/13 11:55:23;;;;;;;67.40;63.73;;;18.80;99.90;;;;;;5073822;28;20182;-77
2022/10/13 11:57:49;;;;;;;58.13;54.23;;;18.70;99.90;;;;;;5071310;28;20194;-77
2022/10/13 12:00:17;;;;;;;20.67;18.53;;;18.60;99.90;;;;;;5055427;28;20256;-77
2022/10/13 12:02:51;;;;;;;14.87;13.33;;;18.60;99.90;;;;;;5074140;28;20209;-77
2022/10/13 12:05:23;;;;;;;13.13;9.77;;;18.60;99.90;;;;;;5056521;28;20186;-77
2022/10/13 12:07:51;;;;;;;23.67;12.83;;;18.60;99.90;;;;;;5055359;28;20268;-77
2022/10/13 12:10:23;;;;;;;14.97;10.13;;;18.70;99.90;;;;;;5073289;28;20304;-78
2022/10/13 12:12:49;;;;;;;41.03;38.13;;;18.80;99.90;;;;;;5073816;28;20658;-77
2022/10/13 12:15:34;;;;;;;13.57;11.93;;;18.90;99.90;;;;;;5073196;28;20178;-78
2022/10/13 12:18:01;;;;;;;37.73;35.13;;;18.90;99.90;;;;;;5072739;28;20268;-77
2022/10/13 12:20:30;;;;;;;24.70;22.30;;;18.90;99.90;;;;;;5075155;28;20251;-77
2022/10/13 12:22:57;;;;;;;57.40;54.10;;;18.80;99.90;;;;;;5060764;28;20210;-77
2022/10/13 12:25:27;;;;;;;67.07;62.63;;;18.90;99.90;;;;;;5074972;28;20174;-78
2022/10/13 12:27:56;;;;;;;54.50;51.20;;;18.80;99.90;;;;;;5071927;28;20181;-78
2022/10/13 12:30:35;;;;;;;61.83;57.87;;;18.90;99.90;;;;;;5072197;28;20194;-78
2022/10/13 12:33:03;;;;;;;28.67;25.87;;;19.20;99.90;;;;;;5072237;28;20209;-78
2022/10/13 12:35:33;;;;;;;19.03;17.10;;;19.40;99.90;;;;;;5072549;28;20173;-77
2022/10/13 12:38:06;;;;;;;50.07;46.63;;;19.40;99.90;;;;;;5073615;28;20218;-78
2022/10/13 12:40:33;;;;;;;55.63;52.37;;;19.70;99.90;;;;;;5054459;28;20300;-79
2022/10/13 12:42:59;;;;;;;31.27;29.10;;;19.90;99.90;;;;;;5071234;28;20422;-78
2022/10/13 12:45:31;;;;;;;24.60;22.70;;;20.10;99.90;;;;;;5070087;28;20182;-77
2022/10/13 12:47:57;;;;;;;25.23;23.27;;;20.10;99.90;;;;;;5052004;28;20339;-77
2022/10/13 12:50:28;;;;;;;22.93;20.97;;;20.10;99.90;;;;;;5068257;28;20714;-77
2022/10/13 12:53:12;;;;;;;24.53;22.43;;;20.30;99.90;;;;;;5055276;28;20189;-77